sensor_id;sensor_type;location;lat;lon;timestamp;P1;durP1;ratioP1;P2;durP2;ratioP2
8580;SDS011;4328;48.622;9.230;2024-01-25T14:00:26;5.53;;;1.43;;
8580;SDS011;4328;48.622;9.230;2024-01-25T14:02:53;4.17;;;1.87;;
8580;SDS011;4328;48.622;9.230;2024-01-25T14:10:15;5.43;;;1.70;;
8580;SDS011;4328;48.622;9.230;2024-01-25T14:12:41;5.87;;;1.97;;
8580;SDS011;4328;48.622;9.230;2024-01-25T14:15:09;5.10;;;1.60;;
8580;SDS011;4328;48.622;9.230;2024-01-25T14:17:36;5.40;;;2.30;;
8580;SDS011;4328;48.622;9.230;2024-01-25T14:20:03;4.17;;;1.77;;
8580;SDS011;4328;48.622;9.230;2024-01-25T14:22:31;4.17;;;1.60;;
8580;SDS011;4328;48.622;9.230;2024-01-25T14:24:59;4.70;;;1.87;;
8580;SDS011;4328;48.622;9.230;2024-01-25T14:27:26;6.10;;;1.90;;
8580;SDS011;4328;48.622;9.230;2024-01-25T14:29:52;3.83;;;1.77;;
8580;SDS011;4328;48.622;9.230;2024-01-25T14:32:19;5.83;;;1.93;;
8580;SDS011;4328;48.622;9.230;2024-01-25T14:34:47;4.13;;;1.80;;
8580;SDS011;4328;48.622;9.230;2024-01-25T14:37:13;5.17;;;2.00;;
8580;SDS011;4328;48.622;9.230;2024-01-25T14:39:40;5.43;;;1.77;;
8580;SDS011;4328;48.622;9.230;2024-01-25T14:42:10;5.30;;;1.47;;
8580;SDS011;4328;48.622;9.230;2024-01-25T14:44:37;3.00;;;1.47;;
8580;SDS011;4328;48.622;9.230;2024-01-25T14:47:03;4.60;;;1.60;;
8580;SDS011;4328;48.622;9.230;2024-01-25T14:49:30;4.47;;;1.93;;
8580;SDS011;4328;48.622;9.230;2024-01-25T14:51:57;4.83;;;1.70;;
8580;SDS011;4328;48.622;9.230;2024-01-25T14:54:23;5.03;;;1.60;;
8580;SDS011;4328;48.622;9.230;2024-01-25T14:56:51;8.17;;;2.50;;
8580;SDS011;4328;48.622;9.230;2024-01-25T14:59:19;7.67;;;5.10;;
8580;SDS011;4328;48.622;9.230;2024-01-25T15:01:46;7.43;;;2.63;;
8580;SDS011;4328;48.622;9.230;2024-01-25T15:04:13;8.43;;;2.80;;
8580;SDS011;4328;48.622;9.230;2024-01-25T15:06:41;6.40;;;2.07;;
8580;SDS011;4328;48.622;9.230;2024-01-25T15:09:08;5.83;;;1.90;;
8580;SDS011;4328;48.622;9.230;2024-01-25T15:11:35;6.23;;;2.27;;
8580;SDS011;4328;48.622;9.230;2024-01-25T15:14:01;5.67;;;2.27;;
8580;SDS011;4328;48.622;9.230;2024-01-25T15:16:30;7.70;;;1.87;;
8580;SDS011;4328;48.622;9.230;2024-01-25T15:18:56;6.43;;;2.03;;
8580;SDS011;4328;48.622;9.230;2024-01-25T15:21:23;4.87;;;1.73;;
8580;SDS011;4328;48.622;9.230;2024-01-25T15:23:50;8.80;;;2.30;;
8580;SDS011;4328;48.622;9.230;2024-01-25T15:26:17;6.43;;;2.70;;
8580;SDS011;4328;48.622;9.230;2024-01-25T15:28:44;4.97;;;1.97;;
8580;SDS011;4328;48.622;9.230;2024-01-25T15:31:12;9.90;;;5.93;;
8580;SDS011;4328;48.622;9.230;2024-01-25T15:33:42;10.10;;;4.07;;
8580;SDS011;4328;48.622;9.230;2024-01-25T15:36:10;6.57;;;3.40;;
8580;SDS011;4328;48.622;9.230;2024-01-25T15:38:40;6.50;;;2.77;;
8580;SDS011;4328;48.622;9.230;2024-01-25T15:41:07;6.57;;;2.60;;
8580;SDS011;4328;48.622;9.230;2024-01-25T15:43:35;12.20;;;8.07;;
8580;SDS011;4328;48.622;9.230;2024-01-25T15:46:04;8.90;;;4.03;;
8580;SDS011;4328;48.622;9.230;2024-01-25T15:48:31;10.30;;;5.33;;
8580;SDS011;4328;48.622;9.230;2024-01-25T15:51:00;14.23;;;6.43;;
8580;SDS011;4328;48.622;9.230;2024-01-25T15:53:26;14.20;;;8.97;;
8580;SDS011;4328;48.622;9.230;2024-01-25T15:55:53;11.33;;;6.40;;
8580;SDS011;4328;48.622;9.230;2024-01-25T15:58:20;9.53;;;6.20;;
8580;SDS011;4328;48.622;9.230;2024-01-25T16:00:47;12.93;;;6.17;;
8580;SDS011;4328;48.622;9.230;2024-01-25T16:03:14;9.10;;;4.27;;
8580;SDS011;4328;48.622;9.230;2024-01-25T16:05:41;24.67;;;17.37;;
8580;SDS011;4328;48.622;9.230;2024-01-25T16:08:09;4.37;;;2.47;;
8580;SDS011;4328;48.622;9.230;2024-01-25T16:10:36;8.07;;;2.83;;
8580;SDS011;4328;48.622;9.230;2024-01-25T16:13:03;7.60;;;4.50;;
8580;SDS011;4328;48.622;9.230;2024-01-25T16:15:30;33.53;;;21.40;;
8580;SDS011;4328;48.622;9.230;2024-01-25T16:17:57;31.83;;;21.73;;
8580;SDS011;4328;48.622;9.230;2024-01-25T16:20:24;18.50;;;13.47;;
8580;SDS011;4328;48.622;9.230;2024-01-25T16:22:51;18.30;;;11.67;;
8580;SDS011;4328;48.622;9.230;2024-01-25T16:25:19;17.80;;;9.70;;
8580;SDS011;4328;48.622;9.230;2024-01-25T16:27:46;22.30;;;13.60;;
8580;SDS011;4328;48.622;9.230;2024-01-25T16:30:18;8.60;;;2.60;;
8580;SDS011;4328;48.622;9.230;2024-01-25T16:32:45;8.83;;;4.37;;
8580;SDS011;4328;48.622;9.230;2024-01-25T16:35:11;7.60;;;4.00;;
8580;SDS011;4328;48.622;9.230;2024-01-25T16:37:38;5.50;;;2.57;;
8580;SDS011;4328;48.622;9.230;2024-01-25T16:40:05;6.50;;;3.00;;
8580;SDS011;4328;48.622;9.230;2024-01-25T16:42:35;5.67;;;2.57;;
8580;SDS011;4328;48.622;9.230;2024-01-25T16:45:01;9.33;;;2.30;;
8580;SDS011;4328;48.622;9.230;2024-01-25T16:47:28;4.37;;;2.60;;
8580;SDS011;4328;48.622;9.230;2024-01-25T16:49:55;6.03;;;2.23;;
8580;SDS011;4328;48.622;9.230;2024-01-25T16:52:22;4.67;;;1.90;;
8580;SDS011;4328;48.622;9.230;2024-01-25T16:54:49;3.80;;;2.13;;
8580;SDS011;4328;48.622;9.230;2024-01-25T16:57:16;6.87;;;2.17;;
8580;SDS011;4328;48.622;9.230;2024-01-25T16:59:44;2.70;;;1.73;;
8580;SDS011;4328;48.622;9.230;2024-01-25T17:02:11;4.73;;;1.90;;
8580;SDS011;4328;48.622;9.230;2024-01-25T17:04:37;2.83;;;1.67;;
8580;SDS011;4328;48.622;9.230;2024-01-25T17:07:04;3.53;;;2.07;;
8580;SDS011;4328;48.622;9.230;2024-01-25T17:09:31;4.37;;;1.67;;
8580;SDS011;4328;48.622;9.230;2024-01-25T17:11:58;7.10;;;2.33;;
8580;SDS011;4328;48.622;9.230;2024-01-25T17:14:25;4.57;;;2.30;;
8580;SDS011;4328;48.622;9.230;2024-01-25T17:16:53;4.67;;;2.00;;
8580;SDS011;4328;48.622;9.230;2024-01-25T17:19:19;4.10;;;2.00;;
8580;SDS011;4328;48.622;9.230;2024-01-25T17:21:46;4.60;;;1.80;;
8580;SDS011;4328;48.622;9.230;2024-01-25T17:24:13;3.87;;;1.87;;
8580;SDS011;4328;48.622;9.230;2024-01-25T17:26:39;5.10;;;2.03;;
8580;SDS011;4328;48.622;9.230;2024-01-25T17:29:06;4.93;;;1.90;;
8580;SDS011;4328;48.622;9.230;2024-01-25T17:31:32;3.20;;;1.93;;
8580;SDS011;4328;48.622;9.230;2024-01-25T17:34:01;4.07;;;1.80;;
8580;SDS011;4328;48.622;9.230;2024-01-25T17:36:27;3.13;;;2.20;;
8580;SDS011;4328;48.622;9.230;2024-01-25T17:38:54;5.97;;;2.47;;
8580;SDS011;4328;48.622;9.230;2024-01-25T17:41:21;4.30;;;1.80;;
8580;SDS011;4328;48.622;9.230;2024-01-25T17:43:47;3.73;;;1.97;;
8580;SDS011;4328;48.622;9.230;2024-01-25T17:46:14;4.83;;;2.07;;
8580;SDS011;4328;48.622;9.230;2024-01-25T17:48:41;2.23;;;1.90;;
8580;SDS011;4328;48.622;9.230;2024-01-25T17:51:10;3.77;;;2.03;;
8580;SDS011;4328;48.622;9.230;2024-01-25T17:53:37;3.33;;;1.83;;
8580;SDS011;4328;48.622;9.230;2024-01-25T17:56:04;3.03;;;1.90;;
8580;SDS011;4328;48.622;9.230;2024-01-25T17:58:31;3.90;;;1.97;;
8580;SDS011;4328;48.622;9.230;2024-01-25T18:00:58;4.07;;;1.97;;
8580;SDS011;4328;48.622;9.230;2024-01-25T18:03:25;5.77;;;2.00;;
8580;SDS011;4328;48.622;9.230;2024-01-25T18:05:54;3.17;;;1.63;;
8580;SDS011;4328;48.622;9.230;2024-01-25T18:08:24;4.27;;;2.00;;
8580;SDS011;4328;48.622;9.230;2024-01-25T18:10:50;4.33;;;2.00;;
8580;SDS011;4328;48.622;9.230;2024-01-25T18:13:20;6.07;;;2.27;;
8580;SDS011;4328;48.622;9.230;2024-01-25T18:15:47;4.53;;;2.10;;
8580;SDS011;4328;48.622;9.230;2024-01-25T18:18:13;3.20;;;2.50;;
8580;SDS011;4328;48.622;9.230;2024-01-25T18:20:40;6.83;;;2.70;;
8580;SDS011;4328;48.622;9.230;2024-01-25T18:23:07;3.90;;;2.17;;
8580;SDS011;4328;48.622;9.230;2024-01-25T18:25:35;5.93;;;2.40;;
8580;SDS011;4328;48.622;9.230;2024-01-25T18:28:02;5.10;;;2.23;;
8580;SDS011;4328;48.622;9.230;2024-01-25T18:30:28;3.67;;;2.20;;
8580;SDS011;4328;48.622;9.230;2024-01-25T18:32:55;5.83;;;2.40;;
8580;SDS011;4328;48.622;9.230;2024-01-25T18:35:22;4.40;;;2.77;;
8580;SDS011;4328;48.622;9.230;2024-01-25T18:37:48;4.23;;;2.87;;
8580;SDS011;4328;48.622;9.230;2024-01-25T18:40:15;3.70;;;2.63;;
8580;SDS011;4328;48.622;9.230;2024-01-25T18:42:43;6.23;;;2.77;;
8580;SDS011;4328;48.622;9.230;2024-01-25T18:45:10;5.03;;;2.50;;
8580;SDS011;4328;48.622;9.230;2024-01-25T18:47:36;6.20;;;3.20;;
8580;SDS011;4328;48.622;9.230;2024-01-25T18:50:03;7.83;;;3.20;;
8580;SDS011;4328;48.622;9.230;2024-01-25T18:52:31;6.63;;;3.73;;
8580;SDS011;4328;48.622;9.230;2024-01-25T18:54:57;4.20;;;2.73;;
8580;SDS011;4328;48.622;9.230;2024-01-25T18:57:25;3.83;;;2.57;;
8580;SDS011;4328;48.622;9.230;2024-01-25T18:59:53;7.13;;;3.70;;
8580;SDS011;4328;48.622;9.230;2024-01-25T19:02:20;6.67;;;4.33;;
8580;SDS011;4328;48.622;9.230;2024-01-25T19:04:48;5.67;;;3.97;;
8580;SDS011;4328;48.622;9.230;2024-01-25T19:07:15;7.60;;;4.50;;
8580;SDS011;4328;48.622;9.230;2024-01-25T19:09:42;8.63;;;4.67;;
8580;SDS011;4328;48.622;9.230;2024-01-25T19:12:09;9.43;;;8.47;;
8580;SDS011;4328;48.622;9.230;2024-01-25T19:14:36;8.30;;;6.10;;
8580;SDS011;4328;48.622;9.230;2024-01-25T19:17:04;7.37;;;3.80;;
8580;SDS011;4328;48.622;9.230;2024-01-25T19:19:31;6.43;;;3.77;;
8580;SDS011;4328;48.622;9.230;2024-01-25T19:21:58;5.87;;;4.53;;
8580;SDS011;4328;48.622;9.230;2024-01-25T19:24:24;7.13;;;4.73;;
8580;SDS011;4328;48.622;9.230;2024-01-25T19:26:51;7.13;;;5.00;;
8580;SDS011;4328;48.622;9.230;2024-01-25T19:29:18;6.20;;;3.87;;
8580;SDS011;4328;48.622;9.230;2024-01-25T19:31:47;6.83;;;3.40;;
8580;SDS011;4328;48.622;9.230;2024-01-25T19:34:14;8.20;;;3.00;;
8580;SDS011;4328;48.622;9.230;2024-01-25T19:36:42;4.80;;;2.90;;
8580;SDS011;4328;48.622;9.230;2024-01-25T19:39:09;4.90;;;3.90;;
8580;SDS011;4328;48.622;9.230;2024-01-25T19:41:35;8.67;;;3.13;;
8580;SDS011;4328;48.622;9.230;2024-01-25T19:44:02;6.37;;;3.10;;
8580;SDS011;4328;48.622;9.230;2024-01-25T19:46:29;7.37;;;2.97;;
8580;SDS011;4328;48.622;9.230;2024-01-25T19:48:56;5.03;;;2.70;;
8580;SDS011;4328;48.622;9.230;2024-01-25T19:51:24;3.83;;;2.20;;
8580;SDS011;4328;48.622;9.230;2024-01-25T19:53:50;3.47;;;2.50;;
8580;SDS011;4328;48.622;9.230;2024-01-25T19:56:17;5.77;;;2.90;;
8580;SDS011;4328;48.622;9.230;2024-01-25T19:58:45;4.63;;;3.10;;
8580;SDS011;4328;48.622;9.230;2024-01-25T20:01:12;4.67;;;3.00;;
8580;SDS011;4328;48.622;9.230;2024-01-25T20:03:40;3.23;;;2.50;;
8580;SDS011;4328;48.622;9.230;2024-01-25T20:06:07;4.37;;;2.90;;
8580;SDS011;4328;48.622;9.230;2024-01-25T20:08:39;5.13;;;2.57;;
8580;SDS011;4328;48.622;9.230;2024-01-25T20:11:06;5.90;;;2.63;;
8580;SDS011;4328;48.622;9.230;2024-01-25T20:13:33;5.37;;;2.53;;
8580;SDS011;4328;48.622;9.230;2024-01-25T20:16:00;3.93;;;2.20;;
8580;SDS011;4328;48.622;9.230;2024-01-25T20:18:27;3.60;;;2.57;;
8580;SDS011;4328;48.622;9.230;2024-01-25T20:20:54;5.87;;;2.60;;
8580;SDS011;4328;48.622;9.230;2024-01-25T20:23:20;4.33;;;2.80;;
8580;SDS011;4328;48.622;9.230;2024-01-25T20:25:48;5.33;;;3.03;;
8580;SDS011;4328;48.622;9.230;2024-01-25T20:28:15;5.93;;;2.80;;
8580;SDS011;4328;48.622;9.230;2024-01-25T20:30:42;6.47;;;2.83;;
8580;SDS011;4328;48.622;9.230;2024-01-25T20:33:09;6.43;;;3.77;;
8580;SDS011;4328;48.622;9.230;2024-01-25T20:35:35;8.97;;;4.17;;
8580;SDS011;4328;48.622;9.230;2024-01-25T20:38:02;6.40;;;3.67;;
8580;SDS011;4328;48.622;9.230;2024-01-25T20:40:29;4.33;;;3.70;;
8580;SDS011;4328;48.622;9.230;2024-01-25T20:42:57;5.67;;;3.77;;
8580;SDS011;4328;48.622;9.230;2024-01-25T20:45:24;5.33;;;3.80;;
8580;SDS011;4328;48.622;9.230;2024-01-25T20:47:51;4.80;;;3.33;;
8580;SDS011;4328;48.622;9.230;2024-01-25T20:50:17;7.03;;;3.90;;
8580;SDS011;4328;48.622;9.230;2024-01-25T20:52:44;4.97;;;3.60;;
8580;SDS011;4328;48.622;9.230;2024-01-25T20:55:10;7.07;;;3.90;;
8580;SDS011;4328;48.622;9.230;2024-01-25T20:57:37;4.43;;;3.73;;
8580;SDS011;4328;48.622;9.230;2024-01-25T21:00:06;6.07;;;4.57;;
8580;SDS011;4328;48.622;9.230;2024-01-25T21:02:34;5.17;;;4.40;;
8580;SDS011;4328;48.622;9.230;2024-01-25T21:05:01;6.30;;;3.40;;
8580;SDS011;4328;48.622;9.230;2024-01-25T21:07:29;5.67;;;3.50;;
8580;SDS011;4328;48.622;9.230;2024-01-25T21:09:57;5.73;;;3.20;;
8580;SDS011;4328;48.622;9.230;2024-01-25T21:12:24;4.97;;;3.73;;
8580;SDS011;4328;48.622;9.230;2024-01-25T21:14:51;6.40;;;3.50;;
8580;SDS011;4328;48.622;9.230;2024-01-25T21:17:19;4.07;;;3.20;;
8580;SDS011;4328;48.622;9.230;2024-01-25T21:19:46;4.77;;;3.80;;
8580;SDS011;4328;48.622;9.230;2024-01-25T21:22:12;3.83;;;3.53;;
8580;SDS011;4328;48.622;9.230;2024-01-25T21:24:39;4.67;;;2.90;;
8580;SDS011;4328;48.622;9.230;2024-01-25T21:27:05;3.50;;;3.13;;
8580;SDS011;4328;48.622;9.230;2024-01-25T21:29:32;4.03;;;3.63;;
8580;SDS011;4328;48.622;9.230;2024-01-25T21:31:59;4.43;;;4.03;;
8580;SDS011;4328;48.622;9.230;2024-01-25T21:34:27;6.47;;;4.30;;
8580;SDS011;4328;48.622;9.230;2024-01-25T21:36:53;6.57;;;4.73;;
8580;SDS011;4328;48.622;9.230;2024-01-25T21:39:20;5.23;;;4.50;;
8580;SDS011;4328;48.622;9.230;2024-01-25T21:41:46;4.67;;;3.93;;
8580;SDS011;4328;48.622;9.230;2024-01-25T21:44:13;7.03;;;4.70;;
8580;SDS011;4328;48.622;9.230;2024-01-25T21:46:39;4.77;;;4.17;;
8580;SDS011;4328;48.622;9.230;2024-01-25T21:49:06;6.93;;;4.70;;
8580;SDS011;4328;48.622;9.230;2024-01-25T21:51:34;7.47;;;4.90;;
8580;SDS011;4328;48.622;9.230;2024-01-25T21:54:07;7.90;;;5.53;;
8580;SDS011;4328;48.622;9.230;2024-01-25T21:56:34;6.87;;;5.57;;
8580;SDS011;4328;48.622;9.230;2024-01-25T21:59:00;7.60;;;5.17;;
8580;SDS011;4328;48.622;9.230;2024-01-25T22:01:27;7.67;;;5.30;;
8580;SDS011;4328;48.622;9.230;2024-01-25T22:03:53;7.40;;;5.33;;
8580;SDS011;4328;48.622;9.230;2024-01-25T22:06:20;7.87;;;5.83;;
8580;SDS011;4328;48.622;9.230;2024-01-25T22:08:49;6.90;;;5.17;;
8580;SDS011;4328;48.622;9.230;2024-01-25T22:11:16;5.60;;;5.03;;
8580;SDS011;4328;48.622;9.230;2024-01-25T22:13:42;5.33;;;4.70;;
8580;SDS011;4328;48.622;9.230;2024-01-25T22:16:09;5.37;;;4.43;;
8580;SDS011;4328;48.622;9.230;2024-01-25T22:18:35;11.33;;;5.00;;
8580;SDS011;4328;48.622;9.230;2024-01-25T22:21:02;6.20;;;5.60;;
8580;SDS011;4328;48.622;9.230;2024-01-25T22:23:29;8.50;;;7.63;;
8580;SDS011;4328;48.622;9.230;2024-01-25T22:25:57;11.50;;;8.43;;
8580;SDS011;4328;48.622;9.230;2024-01-25T22:28:26;9.07;;;6.17;;
8580;SDS011;4328;48.622;9.230;2024-01-25T22:30:53;8.17;;;7.13;;
8580;SDS011;4328;48.622;9.230;2024-01-25T22:33:20;8.27;;;7.20;;
8580;SDS011;4328;48.622;9.230;2024-01-25T22:35:46;8.43;;;6.40;;
8580;SDS011;4328;48.622;9.230;2024-01-25T22:38:13;8.77;;;6.40;;
8580;SDS011;4328;48.622;9.230;2024-01-25T22:40:40;7.93;;;7.00;;
8580;SDS011;4328;48.622;9.230;2024-01-25T22:43:08;8.77;;;6.87;;
8580;SDS011;4328;48.622;9.230;2024-01-25T22:45:34;7.47;;;6.50;;
8580;SDS011;4328;48.622;9.230;2024-01-25T22:48:01;7.07;;;6.00;;
8580;SDS011;4328;48.622;9.230;2024-01-25T22:50:28;7.47;;;5.83;;
8580;SDS011;4328;48.622;9.230;2024-01-25T22:52:54;8.00;;;6.17;;
8580;SDS011;4328;48.622;9.230;2024-01-25T22:55:21;7.80;;;5.57;;
8580;SDS011;4328;48.622;9.230;2024-01-25T22:57:47;6.00;;;5.20;;
